Pagrindinis puslapis
METAR-TAF:

METAR-TAF

Oro uostai :

Tabas, Iranas

platuma: 33-36N, ilguma: 056-55E, Aukštis: 710 m

Dabartinis oras

Ataskaita buvo paskelbta 2 valandos ir 18 minutes, ne 10:00 UTC
Vėjas 4 kt iš Šiaurės
Temperatūra 44°C
Drėgmė 7%
Slėgis 1006 hPa

METAR: OIMT 041000Z AUTO 01004KT //// // ////// 44/00 Q1006

Laikas: 16:48 (12:18 UTC)


TAF: trūkstamas

Orai ataskaitas ir orų prognozės (METAR, TAF).

turimą stotys yra geltonos ir raudonos taškus žemėlapyje.

Perkelti pele per norėdami pamatyti stoties vardą.

Tada spustelėkite, norėdami matyti oro stebėjimo ir prognozės.

Norėdami pakeisti žemėlapį: spustelėkite ant žalios mygtukų su juodo kryžiaus žemyn,; žalią mygtuką su brūkšneliu, jei norite nutolinti; arba žalių rodyklių gretimoms žemėlapius.


METAR-TAF: